Surat Airport

Airport
ICAO code: 
VASU
IATA Code: 
STV
Summary
ICAO Region: 
APAC
Territory: 
Location: 
Magdalla, Gujarat
Serving: 
Surat
Elevation: 
16 ft
Coordinates: 
Aerial View: 
21° 6' 50.62" N, 72° 44' 30.451" E
Metar
Observation
VASU 221200Z 22012G22KT 6000 FEW025 25/19 Q1006 NOSIG
Station
Surat Airport
Date/Time
2022-01-22 12:00:00
Wind direction
220°
Wind speed
12 kts
Lowest cloud amount
few clouds
Temperature
25°C
Dew point
19°C
Humidity
69%
QNH
1006 hPa
Weather condition
n/a

Climatology

Tropical Savanna climate (Köppen climate classification Aw)

Runways

Designator Length Width Surface Rops
4/22 2250 30 ASP No/No
Airport map: 
Aerial View: 

Accidents and Serious Incidents at or in the vicinity of VASU

SKYbrary Partners:

Safety knowledge contributed by: